Time;durP1;ratioP1;P1;durP2;ratioP2;P2;SDS_P1;SDS_P2;PMS_P1;PMS_P2;Temp;Humidity;BMP_temperature;BMP_pressure;BME280_temperature;BME280_humidity;BME280_pressure;Samples;Min_cycle;Max_cycle;Signal;HPM_P1;HPM_P2
2023/09/19 00:00:23;;;;;;;2.40;2.22;;;19.70;99.90;;;;;;5060134;28;20028;-78
2023/09/19 00:02:59;;;;;;;0.10;0.10;;;22.80;99.90;;;;;;5062659;28;20032;-78
2023/09/19 00:05:27;;;;;;;0.00;0.00;;;19.70;99.90;;;;;;5063481;28;20490;-78
2023/09/19 00:07:54;;;;;;;0.28;0.28;;;19.60;99.90;;;;;;5063585;28;20353;-78
2023/09/19 00:10:31;;;;;;;0.00;0.00;;;19.60;99.90;;;;;;5065257;28;20462;-78
2023/09/19 00:12:59;;;;;;;0.13;0.13;;;19.60;99.90;;;;;;5064341;28;20024;-77
2023/09/19 00:15:28;;;;;;;0.15;0.15;;;19.70;99.90;;;;;;5064411;28;20016;-77
2023/09/19 00:17:55;;;;;;;0.70;0.70;;;19.70;99.90;;;;;;5054471;28;20037;-77
2023/09/19 00:20:22;;;;;;;0.10;0.10;;;16.80;99.90;;;;;;5063460;28;20537;-78
2023/09/19 00:22:53;;;;;;;9.07;4.18;;;19.60;99.90;;;;;;5063804;28;20595;-79
2023/09/19 00:25:20;;;;;;;0.00;0.00;;;19.70;99.90;;;;;;5063594;28;20078;-78
2023/09/19 00:27:49;;;;;;;0.20;0.20;;;19.60;99.90;;;;;;5062603;28;20064;-78
2023/09/19 00:30:19;;;;;;;0.75;0.75;;;19.60;99.90;;;;;;5062968;28;20326;-81
2023/09/19 00:32:47;;;;;;;0.00;0.00;;;19.70;99.90;;;;;;5063268;28;20024;-77
2023/09/19 00:35:17;;;;;;;0.00;0.00;;;19.70;99.90;;;;;;5061654;28;20056;-75
2023/09/19 00:37:43;;;;;;;0.00;0.00;;;19.70;99.90;;;;;;5061221;28;20080;-77
2023/09/19 00:40:15;;;;;;;0.00;0.00;;;19.70;99.90;;;;;;5061154;28;20021;-77
2023/09/19 00:42:41;;;;;;;0.63;0.63;;;19.70;99.90;;;;;;5059851;28;20571;-81
2023/09/19 00:45:12;;;;;;;0.30;0.30;;;19.70;99.90;;;;;;5059393;28;20031;-80
2023/09/19 00:47:49;;;;;;;0.10;0.10;;;19.70;99.90;;;;;;5060358;28;20406;-77
2023/09/19 00:50:21;;;;;;;0.00;0.00;;;19.60;99.90;;;;;;5059912;28;20017;-79
2023/09/19 00:52:50;;;;;;;2.00;1.88;;;19.60;99.90;;;;;;5059410;28;20350;-77
2023/09/19 00:55:19;;;;;;;0.65;0.65;;;19.60;99.90;;;;;;5060404;28;20031;-76
2023/09/19 00:57:46;;;;;;;0.10;0.10;;;19.60;99.90;;;;;;5059345;28;20024;-77
2023/09/19 01:00:15;;;;;;;0.00;0.00;;;19.60;99.90;;;;;;5060015;28;20178;-77
2023/09/19 01:02:45;;;;;;;0.10;0.10;;;19.60;99.90;;;;;;5042077;28;20213;-76
2023/09/19 01:05:15;;;;;;;0.77;0.77;;;19.60;99.90;;;;;;5060325;28;20035;-77
2023/09/19 01:07:41;;;;;;;1.10;1.08;;;19.70;99.90;;;;;;5059868;28;20019;-76
2023/09/19 01:10:12;;;;;;;5.28;5.05;;;19.60;99.90;;;;;;5040482;28;20031;-76
2023/09/19 01:12:47;;;;;;;0.00;0.00;;;19.10;99.90;;;;;;5058454;28;20029;-76
2023/09/19 01:15:19;;;;;;;0.00;0.00;;;19.70;99.90;;;;;;5041698;28;20024;-75
2023/09/19 01:18:14;;;;;;;0.00;0.00;;;19.70;99.90;;;;;;5059490;28;20032;-77
2023/09/19 01:20:55;;;;;;;0.10;0.10;;;19.70;99.90;;;;;;5041844;28;20017;-77
2023/09/19 01:23:44;;;;;;;0.00;0.00;;;19.80;99.90;;;;;;5059873;28;20082;-75
2023/09/19 01:26:27;;;;;;;0.10;0.10;;;19.80;99.90;;;;;;4976631;28;20209;-76
2023/09/19 01:29:32;;;;;;;0.10;0.10;;;19.80;99.90;;;;;;4960341;28;20046;-76
2023/09/19 01:32:06;;;;;;;3.28;2.13;;;19.80;99.90;;;;;;4959485;28;20335;-76
2023/09/19 01:34:52;;;;;;;0.00;0.00;;;19.80;99.90;;;;;;4960135;28;20018;-76
2023/09/19 01:37:20;;;;;;;0.47;0.47;;;19.80;99.90;;;;;;4959033;28;20130;-76
2023/09/19 01:39:52;;;;;;;0.20;0.20;;;19.80;99.90;;;;;;4959719;28;20209;-76
2023/09/19 01:42:44;;;;;;;0.10;0.10;;;19.70;99.90;;;;;;4960488;28;20050;-77
2023/09/19 01:45:24;;;;;;;0.32;0.28;;;19.70;99.90;;;;;;4976547;28;20069;-76
2023/09/19 01:47:58;;;;;;;0.57;0.57;;;19.80;99.90;;;;;;4978875;28;20066;-76
2023/09/19 01:50:40;;;;;;;0.08;0.08;;;19.80;99.90;;;;;;4976953;28;20034;-77
2023/09/19 01:53:40;;;;;;;0.00;0.00;;;19.80;99.90;;;;;;4977596;28;20070;-77
2023/09/19 01:56:12;;;;;;;0.00;0.00;;;19.50;99.90;;;;;;4922617;29;20040;-83
2023/09/19 01:58:45;;;;;;;0.00;0.00;;;19.80;99.90;;;;;;4909988;29;20257;-79
2023/09/19 02:01:16;;;;;;;0.00;0.00;;;19.80;99.90;;;;;;4941888;29;20039;-78
2023/09/19 02:03:44;;;;;;;0.10;0.10;;;19.80;99.90;;;;;;4980138;28;20493;-75
2023/09/19 02:06:18;;;;;;;0.98;0.82;;;19.70;99.90;;;;;;4999627;28;20172;-80
2023/09/19 02:08:45;;;;;;;0.10;0.10;;;19.60;99.90;;;;;;4984841;28;20284;-76
2023/09/19 02:11:13;;;;;;;0.20;0.20;;;19.60;99.90;;;;;;4999967;28;20145;-76
2023/09/19 02:13:40;;;;;;;8.25;7.82;;;19.60;99.90;;;;;;4999535;28;20038;-77
2023/09/19 02:16:07;;;;;;;0.25;0.25;;;19.60;99.90;;;;;;4984644;28;20041;-76
2023/09/19 02:18:35;;;;;;;0.00;0.00;;;19.80;99.90;;;;;;5000961;28;20098;-79
2023/09/19 02:21:03;;;;;;;0.00;0.00;;;19.60;99.90;;;;;;5001334;28;20058;-77
2023/09/19 02:23:30;;;;;;;2.17;2.08;;;19.60;99.90;;;;;;4985523;28;20030;-78
2023/09/19 02:26:04;;;;;;;0.10;0.10;;;19.60;99.90;;;;;;4985562;28;20056;-81
2023/09/19 02:28:32;;;;;;;0.75;0.75;;;19.60;99.90;;;;;;5001220;28;20045;-77
2023/09/19 02:30:59;;;;;;;0.10;0.10;;;19.60;99.90;;;;;;4970172;28;20097;-77
2023/09/19 02:33:24;;;;;;;0.10;0.10;;;19.60;99.90;;;;;;5030779;28;20332;-76
2023/09/19 02:36:00;;;;;;;5.38;2.85;;;19.60;99.90;;;;;;5063519;28;20021;-78
2023/09/19 02:38:28;;;;;;;0.10;0.10;;;19.50;99.90;;;;;;5079589;28;20332;-76
2023/09/19 02:40:56;;;;;;;0.00;0.00;;;19.60;99.90;;;;;;5063989;28;20497;-79
2023/09/19 02:43:23;;;;;;;0.00;0.00;;;19.60;99.90;;;;;;5066549;28;20082;-76
2023/09/19 02:45:56;;;;;;;0.10;0.10;;;19.50;99.90;;;;;;5064876;28;20384;-79
2023/09/19 02:48:22;;;;;;;0.68;0.68;;;19.50;99.90;;;;;;5062653;28;20053;-77
2023/09/19 02:50:52;;;;;;;0.00;0.00;;;19.50;99.90;;;;;;5029092;28;20057;-77
2023/09/19 02:53:18;;;;;;;0.00;0.00;;;19.50;99.90;;;;;;5064890;28;20028;-77
2023/09/19 02:55:44;;;;;;;0.00;0.00;;;19.50;99.90;;;;;;5044317;28;20032;-77
2023/09/19 02:58:11;;;;;;;0.30;0.30;;;19.40;99.90;;;;;;5044405;28;20024;-78
2023/09/19 03:00:38;;;;;;;0.00;0.00;;;19.40;99.90;;;;;;5063430;28;20028;-80
2023/09/19 03:03:05;;;;;;;0.00;0.00;;;19.30;99.90;;;;;;5063262;28;20024;-77
2023/09/19 03:05:31;;;;;;;6.63;0.50;;;19.00;99.90;;;;;;5061521;28;20290;-82
2023/09/19 03:08:00;;;;;;;0.08;0.08;;;19.20;99.90;;;;;;5061715;28;20671;-77
2023/09/19 03:10:27;;;;;;;0.10;0.10;;;19.20;99.90;;;;;;5061316;28;20031;-76
2023/09/19 03:12:52;;;;;;;0.43;0.43;;;19.20;99.90;;;;;;5044541;28;20041;-76
2023/09/19 03:15:18;;;;;;;5.30;4.95;;;19.20;99.90;;;;;;5062556;28;20025;-77
2023/09/19 03:17:45;;;;;;;0.00;0.00;;;19.20;99.90;;;;;;5044592;28;20025;-77
2023/09/19 03:20:13;;;;;;;0.80;0.80;;;19.30;99.90;;;;;;5029171;28;20060;-80
2023/09/19 03:22:42;;;;;;;0.00;0.00;;;19.20;99.90;;;;;;5063306;28;20036;-77
2023/09/19 03:25:08;;;;;;;0.57;0.57;;;19.20;99.90;;;;;;5064773;28;20024;-82
2023/09/19 03:27:35;;;;;;;3.53;2.20;;;19.20;99.90;;;;;;5067084;28;20064;-82
2023/09/19 03:30:05;;;;;;;0.00;0.00;;;19.10;99.90;;;;;;5066292;28;20088;-81
2023/09/19 03:32:32;;;;;;;0.10;0.10;;;19.10;99.90;;;;;;5066523;28;20218;-76
2023/09/19 03:34:58;;;;;;;0.40;0.40;;;18.70;99.90;;;;;;5068595;28;20029;-83
2023/09/19 03:37:24;;;;;;;0.00;0.00;;;19.10;99.90;;;;;;5048020;28;20028;-83
2023/09/19 03:39:51;;;;;;;0.00;0.00;;;19.00;99.90;;;;;;5066703;28;20078;-79
2023/09/19 03:42:17;;;;;;;0.00;0.00;;;19.10;99.90;;;;;;5061488;28;20016;-78
2023/09/19 03:44:43;;;;;;;0.00;0.00;;;19.00;99.90;;;;;;5043093;28;20313;-77
2023/09/19 03:47:09;;;;;;;0.00;0.00;;;19.00;99.90;;;;;;5061195;28;20025;-79
2023/09/19 03:49:35;;;;;;;0.00;0.00;;;18.90;99.90;;;;;;5061161;28;20118;-81
2023/09/19 03:52:00;;;;;;;0.00;0.00;;;18.90;99.90;;;;;;5061163;28;20394;-77
2023/09/19 03:54:26;;;;;;;0.00;0.00;;;18.90;99.90;;;;;;5061309;28;20047;-77
2023/09/19 03:56:53;;;;;;;0.10;0.10;;;18.90;99.90;;;;;;5062260;28;20020;-80
2023/09/19 03:59:18;;;;;;;19.65;2.83;;;18.80;99.90;;;;;;5062749;28;20024;-77
2023/09/19 04:01:46;;;;;;;9.25;8.90;;;18.80;99.90;;;;;;5062565;28;20111;-79
2023/09/19 04:04:14;;;;;;;0.00;0.00;;;18.80;99.90;;;;;;5044365;28;20100;-76
2023/09/19 04:06:40;;;;;;;0.10;0.10;;;18.80;99.90;;;;;;5044956;28;20016;-77
2023/09/19 04:09:07;;;;;;;0.30;0.30;;;18.80;99.90;;;;;;5062083;28;20029;-76
2023/09/19 04:11:33;;;;;;;0.10;0.10;;;18.80;99.90;;;;;;5044102;28;20039;-76
2023/09/19 04:13:59;;;;;;;0.00;0.00;;;18.80;99.90;;;;;;5060032;28;20221;-77
2023/09/19 04:16:25;;;;;;;0.00;0.00;;;18.80;99.90;;;;;;5041298;28;20020;-75
2023/09/19 04:18:51;;;;;;;0.25;0.25;;;18.70;99.90;;;;;;5059709;28;20384;-77
2023/09/19 04:21:17;;;;;;;0.10;0.10;;;18.70;99.90;;;;;;5041426;28;20444;-77
2023/09/19 04:23:43;;;;;;;0.00;0.00;;;18.70;99.90;;;;;;5042463;28;20021;-77
2023/09/19 04:26:08;;;;;;;0.10;0.10;;;18.70;99.90;;;;;;5060183;28;20024;-78
2023/09/19 04:28:37;;;;;;;0.25;0.25;;;18.80;99.90;;;;;;5060199;28;20489;-79
2023/09/19 04:31:03;;;;;;;0.00;0.00;;;18.80;99.90;;;;;;5059954;28;20078;-86
2023/09/19 04:33:29;;;;;;;0.25;0.20;;;18.70;99.90;;;;;;5060048;28;20032;-77
2023/09/19 04:35:55;;;;;;;0.00;0.00;;;18.70;99.90;;;;;;5074221;28;20032;-77
2023/09/19 04:38:21;;;;;;;0.00;0.00;;;18.70;99.90;;;;;;5060240;28;20035;-77
2023/09/19 04:40:49;;;;;;;0.10;0.10;;;18.70;99.90;;;;;;5042553;28;20097;-78
2023/09/19 04:43:15;;;;;;;0.00;0.00;;;18.60;99.90;;;;;;5066477;28;20740;-77
2023/09/19 04:45:41;;;;;;;0.10;0.10;;;18.60;99.90;;;;;;5068012;28;20579;-80
2023/09/19 04:48:08;;;;;;;0.10;0.10;;;18.60;99.90;;;;;;5047310;28;20033;-79
2023/09/19 04:50:34;;;;;;;1.30;1.20;;;18.50;99.90;;;;;;5049741;28;20024;-88
2023/09/19 04:53:01;;;;;;;15.88;6.05;;;18.60;99.90;;;;;;5068006;28;20035;-80
2023/09/19 04:55:27;;;;;;;0.00;0.00;;;19.10;99.90;;;;;;5063618;28;20104;-77
2023/09/19 04:57:53;;;;;;;1.02;0.98;;;18.70;99.90;;;;;;5059646;28;20533;-77
2023/09/19 05:00:24;;;;;;;0.20;0.20;;;18.80;99.90;;;;;;5059811;28;20029;-77
2023/09/19 05:02:53;;;;;;;7.47;6.93;;;18.80;99.90;;;;;;5059563;28;20029;-76
2023/09/19 05:05:20;;;;;;;2.55;2.45;;;18.80;99.90;;;;;;5060170;28;20054;-76
2023/09/19 05:07:46;;;;;;;0.00;0.00;;;18.80;99.90;;;;;;5060166;28;20013;-76
2023/09/19 05:10:13;;;;;;;0.10;0.10;;;18.80;99.90;;;;;;5042412;28;20055;-78
2023/09/19 05:12:45;;;;;;;0.10;0.10;;;18.90;99.90;;;;;;5059412;28;20025;-76
2023/09/19 05:15:11;;;;;;;2.67;2.35;;;18.90;99.90;;;;;;5074276;28;20150;-77
2023/09/19 05:17:37;;;;;;;2.88;1.42;;;18.60;99.90;;;;;;5059852;28;20500;-78
2023/09/19 05:20:24;;;;;;;0.65;0.63;;;19.00;99.90;;;;;;5042668;28;20040;-77
2023/09/19 05:23:03;;;;;;;0.17;0.17;;;19.20;99.90;;;;;;5059021;28;20028;-77
2023/09/19 05:25:31;;;;;;;0.90;0.90;;;19.20;99.90;;;;;;5047187;28;20211;-76
2023/09/19 05:28:03;;;;;;;0.00;0.00;;;19.30;99.90;;;;;;5061644;28;20333;-80
2023/09/19 05:30:29;;;;;;;0.17;0.17;;;19.40;99.90;;;;;;5042618;28;20532;-78
2023/09/19 05:32:56;;;;;;;0.00;0.00;;;19.40;99.90;;;;;;5060216;28;20325;-79
2023/09/19 05:35:23;;;;;;;0.00;0.00;;;19.50;99.90;;;;;;5058225;28;20016;-77
2023/09/19 05:37:51;;;;;;;0.30;0.30;;;19.60;99.90;;;;;;5057819;28;20055;-76
2023/09/19 05:40:20;;;;;;;0.10;0.10;;;19.60;99.90;;;;;;5058072;28;20379;-80
2023/09/19 05:42:46;;;;;;;0.08;0.08;;;19.70;99.90;;;;;;5039624;28;20024;-77
2023/09/19 05:45:13;;;;;;;0.00;0.00;;;19.80;99.90;;;;;;5039743;28;20510;-76
2023/09/19 05:47:41;;;;;;;0.00;0.00;;;20.60;99.90;;;;;;5039758;28;20317;-77
2023/09/19 05:50:08;;;;;;;0.70;0.52;;;19.90;99.90;;;;;;5039921;28;20067;-76
2023/09/19 05:52:37;;;;;;;0.15;0.15;;;18.20;99.90;;;;;;5039144;28;20123;-76
2023/09/19 05:55:06;;;;;;;19.90;1.75;;;20.00;99.90;;;;;;5039706;28;20679;-79
2023/09/19 05:57:32;;;;;;;27.00;4.28;;;20.00;99.90;;;;;;5057503;28;20029;-77
2023/09/19 05:59:58;;;;;;;0.43;0.43;;;19.90;99.90;;;;;;5059233;28;20497;-76
2023/09/19 06:02:26;;;;;;;0.13;0.13;;;19.90;99.90;;;;;;5059534;28;20229;-78
2023/09/19 06:04:55;;;;;;;0.00;0.00;;;19.90;99.90;;;;;;5059426;28;20090;-77
2023/09/19 06:07:26;;;;;;;0.10;0.10;;;19.80;99.90;;;;;;5060010;28;20078;-76
2023/09/19 06:09:55;;;;;;;0.10;0.10;;;19.90;99.90;;;;;;5041431;28;20119;-83
2023/09/19 06:12:21;;;;;;;0.93;0.85;;;20.00;99.90;;;;;;5059138;28;20089;-76
2023/09/19 06:14:49;;;;;;;0.10;0.10;;;20.00;99.90;;;;;;5058734;28;20028;-76
2023/09/19 06:17:15;;;;;;;0.00;0.00;;;20.00;99.90;;;;;;5058155;28;20015;-83
2023/09/19 06:19:47;;;;;;;1.65;1.55;;;20.00;99.90;;;;;;5059097;28;20271;-77
2023/09/19 06:22:18;;;;;;;1.75;1.65;;;20.10;99.90;;;;;;5058438;28;20229;-79
2023/09/19 06:24:44;;;;;;;0.25;0.25;;;20.20;99.90;;;;;;5058349;28;20501;-81
2023/09/19 06:27:10;;;;;;;1.55;0.47;;;20.20;99.90;;;;;;5057607;28;20123;-77
2023/09/19 06:29:37;;;;;;;0.10;0.10;;;20.30;99.90;;;;;;5057457;28;20470;-77
2023/09/19 06:32:10;;;;;;;6.88;6.65;;;21.60;99.90;;;;;;5073013;28;20028;-77
2023/09/19 06:34:37;;;;;;;0.10;0.10;;;20.50;99.90;;;;;;5039477;28;20067;-77
2023/09/19 06:37:03;;;;;;;0.00;0.00;;;20.70;99.90;;;;;;5039429;28;20040;-77
2023/09/19 06:39:29;;;;;;;0.15;0.15;;;20.70;99.90;;;;;;5057352;28;20016;-77
2023/09/19 06:41:55;;;;;;;3.10;3.00;;;20.90;99.90;;;;;;5040673;28;20585;-76
2023/09/19 06:44:24;;;;;;;0.22;0.22;;;21.00;99.90;;;;;;5043056;28;20032;-78
2023/09/19 06:46:51;;;;;;;0.20;0.20;;;21.10;99.90;;;;;;5079531;28;20031;-79
2023/09/19 06:49:17;;;;;;;0.45;0.45;;;21.20;99.90;;;;;;5063864;28;20026;-78
2023/09/19 06:51:43;;;;;;;0.00;0.00;;;;;;;;;;5063214;28;20124;-77
2023/09/19 06:54:10;;;;;;;0.03;0.03;;;21.50;99.90;;;;;;5067057;28;20028;-82
2023/09/19 06:56:36;;;;;;;1.23;1.17;;;21.70;99.90;;;;;;5064676;28;20032;-77
2023/09/19 06:59:03;;;;;;;10.60;2.03;;;21.90;99.90;;;;;;5060439;28;20046;-76
2023/09/19 07:01:29;;;;;;;1.58;1.48;;;22.20;99.90;;;;;;5060275;28;20028;-76
2023/09/19 07:03:55;;;;;;;0.00;0.00;;;22.40;99.90;;;;;;5042425;28;20057;-77
2023/09/19 07:06:21;;;;;;;0.08;0.08;;;22.60;99.90;;;;;;5060327;28;20099;-76
2023/09/19 07:08:47;;;;;;;0.10;0.10;;;22.70;99.90;;;;;;5060461;28;20535;-77
2023/09/19 07:11:13;;;;;;;1.13;1.02;;;23.00;99.90;;;;;;5042881;28;20519;-76
2023/09/19 07:13:39;;;;;;;0.13;0.13;;;23.20;99.90;;;;;;5061595;28;20284;-76
2023/09/19 07:16:05;;;;;;;0.90;0.90;;;23.50;99.90;;;;;;5061947;28;20375;-81
2023/09/19 07:18:34;;;;;;;0.57;0.57;;;23.70;99.90;;;;;;5044009;28;20051;-76
2023/09/19 07:21:04;;;;;;;0.32;0.32;;;23.90;99.90;;;;;;5063166;28;20032;-76
2023/09/19 07:23:34;;;;;;;1.80;1.75;;;24.10;99.90;;;;;;5062984;28;20248;-76
2023/09/19 07:26:01;;;;;;;0.20;0.20;;;24.40;99.90;;;;;;5062766;28;20009;-76
2023/09/19 07:28:28;;;;;;;1.52;1.42;;;24.50;99.90;;;;;;5046154;28;20518;-76
2023/09/19 07:30:54;;;;;;;1.25;0.93;;;24.50;99.90;;;;;;5028947;28;20114;-76
2023/09/19 07:33:20;;;;;;;1.33;1.08;;;24.60;99.90;;;;;;5028360;28;20024;-76
2023/09/19 07:35:47;;;;;;;2.75;2.65;;;24.70;99.90;;;;;;5043747;28;20529;-77
2023/09/19 07:38:13;;;;;;;15.93;1.83;;;24.80;99.90;;;;;;5060855;28;20031;-76
2023/09/19 07:40:39;;;;;;;1.17;1.10;;;25.00;99.90;;;;;;5062001;28;20045;-76
2023/09/19 07:43:08;;;;;;;2.95;1.30;;;25.20;99.90;;;;;;5069053;28;20027;-76
2023/09/19 07:45:34;;;;;;;6.30;0.90;;;25.30;99.90;;;;;;5056310;28;20081;-78
2023/09/19 07:48:13;;;;;;;0.13;0.13;;;25.40;99.90;;;;;;5073468;28;20020;-80
2023/09/19 07:50:40;;;;;;;1.92;1.17;;;25.40;99.90;;;;;;5053073;28;20325;-75
2023/09/19 07:53:06;;;;;;;0.30;0.30;;;25.50;99.90;;;;;;5062770;28;20025;-76
2023/09/19 07:55:33;;;;;;;0.03;0.03;;;25.50;99.90;;;;;;5063831;28;20020;-77
2023/09/19 07:57:59;;;;;;;0.00;0.00;;;25.60;99.90;;;;;;5051621;28;20036;-76
2023/09/19 08:00:28;;;;;;;0.00;0.00;;;25.50;99.90;;;;;;5053158;28;20025;-76
2023/09/19 08:02:54;;;;;;;0.22;0.22;;;25.70;99.90;;;;;;5068466;28;20017;-78
2023/09/19 08:05:20;;;;;;;2.63;1.25;;;25.70;99.90;;;;;;5050405;28;20112;-76
2023/09/19 08:07:49;;;;;;;2.83;0.73;;;25.80;99.90;;;;;;5067582;28;20049;-86
2023/09/19 08:10:16;;;;;;;0.00;0.00;;;26.00;99.90;;;;;;5064281;28;20020;-78
2023/09/19 08:12:46;;;;;;;0.00;0.00;;;26.00;99.90;;;;;;5066391;28;20082;-76
2023/09/19 08:15:17;;;;;;;0.20;0.20;;;26.10;99.90;;;;;;5059938;28;20383;-81
2023/09/19 08:17:43;;;;;;;2.65;2.55;;;26.20;99.90;;;;;;5042788;28;20024;-76
2023/09/19 08:20:17;;;;;;;0.00;0.00;;;26.20;99.90;;;;;;5043191;28;20048;-75
2023/09/19 08:22:57;;;;;;;0.03;0.03;;;26.30;99.90;;;;;;5060895;28;20053;-76
2023/09/19 08:25:25;;;;;;;0.00;0.00;;;26.30;99.90;;;;;;5060105;28;20562;-76
2023/09/19 08:27:51;;;;;;;1.92;1.50;;;26.20;99.90;;;;;;5060672;28;20325;-79
2023/09/19 08:30:26;;;;;;;0.25;0.25;;;26.40;99.90;;;;;;5045666;28;20025;-78
2023/09/19 08:33:04;;;;;;;0.45;0.45;;;26.60;99.90;;;;;;5064486;28;20039;-79
2023/09/19 08:35:30;;;;;;;0.10;0.10;;;26.60;99.90;;;;;;5030654;28;20474;-78
2023/09/19 08:37:56;;;;;;;0.47;0.47;;;26.80;99.90;;;;;;5065283;28;20044;-78
2023/09/19 08:40:23;;;;;;;1.45;1.35;;;27.60;99.90;;;;;;5064578;28;20054;-80
2023/09/19 08:42:53;;;;;;;0.00;0.00;;;27.00;99.90;;;;;;5049352;28;20055;-76
2023/09/19 08:45:27;;;;;;;0.00;0.00;;;27.00;99.90;;;;;;5046676;28;20032;-76
2023/09/19 08:48:17;;;;;;;0.32;0.17;;;27.10;99.90;;;;;;5049277;28;20131;-80
2023/09/19 08:50:58;;;;;;;0.10;0.10;;;27.20;99.90;;;;;;5071333;28;20028;-77
2023/09/19 08:54:03;;;;;;;1.08;0.77;;;27.40;99.90;;;;;;5049950;28;20031;-83
2023/09/19 08:56:29;;;;;;;0.10;0.10;;;27.60;99.90;;;;;;4991583;28;20762;-83
2023/09/19 08:59:02;;;;;;;0.52;0.20;;;27.60;99.90;;;;;;4997701;28;20105;-76
2023/09/19 09:01:28;;;;;;;;;;;27.60;99.90;;;;;;4997561;28;20052;-76
2023/09/19 09:03:56;;;;;;;0.00;0.00;;;27.70;99.90;;;;;;4979317;28;19913;-78
2023/09/19 09:06:24;;;;;;;0.05;0.05;;;27.90;99.30;;;;;;4979243;28;20192;-75
2023/09/19 09:08:52;;;;;;;1.83;1.70;;;28.00;99.70;;;;;;4995425;28;20026;-76
2023/09/19 09:11:19;;;;;;;0.00;0.00;;;27.90;99.80;;;;;;4995950;28;20032;-75
2023/09/19 09:13:45;;;;;;;1.65;0.90;;;28.10;99.70;;;;;;4978508;28;20057;-76
2023/09/19 09:16:13;;;;;;;0.85;0.57;;;28.10;99.30;;;;;;4995672;28;20038;-77
2023/09/19 09:18:39;;;;;;;0.40;0.40;;;28.00;99.60;;;;;;4979046;28;20030;-76
2023/09/19 09:21:05;;;;;;;0.30;0.30;;;27.90;99.60;;;;;;4995531;28;20030;-77
2023/09/19 09:23:35;;;;;;;0.00;0.00;;;28.10;99.90;;;;;;4995817;28;20040;-78
2023/09/19 09:26:05;;;;;;;0.10;0.10;;;28.10;99.40;;;;;;4994788;28;20026;-74
2023/09/19 09:28:33;;;;;;;0.38;0.38;;;28.10;99.30;;;;;;4995590;28;20042;-77
2023/09/19 09:31:08;;;;;;;0.00;0.00;;;28.00;99.30;;;;;;4996306;28;20387;-78
2023/09/19 09:33:34;;;;;;;1.85;0.63;;;28.00;99.30;;;;;;5028057;28;20585;-79
2023/09/19 09:36:02;;;;;;;0.00;0.00;;;27.90;99.80;;;;;;5058309;28;20071;-79
2023/09/19 09:38:46;;;;;;;0.00;0.00;;;28.00;99.70;;;;;;5058318;28;20017;-76
2023/09/19 09:41:15;;;;;;;0.00;0.00;;;28.10;99.10;;;;;;5040153;28;20572;-77
2023/09/19 09:43:44;;;;;;;0.00;0.00;;;28.60;99.00;;;;;;5058022;28;20037;-76
2023/09/19 09:52:13;;;;;;;2.95;0.40;;;28.90;97.80;;;;;;5038720;28;20139;-76
2023/09/19 09:55:08;;;;;;;0.00;0.00;;;28.70;97.90;;;;;;5058822;28;20035;-76
2023/09/19 09:57:34;;;;;;;0.00;0.00;;;28.80;97.50;;;;;;5058787;28;20029;-76
2023/09/19 10:02:44;;;;;;;0.00;0.00;;;28.80;96.40;;;;;;5059422;28;20728;-76
2023/09/19 10:08:04;;;;;;;0.00;0.00;;;27.60;94.60;;;;;;5059537;28;20242;-76
2023/09/19 10:11:03;;;;;;;0.00;0.00;;;30.20;96.10;;;;;;5058678;28;20321;-76
2023/09/19 10:13:24;;;;;;;0.10;0.10;;;29.60;94.90;;;;;;5057830;28;20250;-77
2023/09/19 10:15:54;;;;;;;0.20;0.20;;;29.70;95.50;;;;;;5057066;28;20107;-75
2023/09/19 10:18:23;;;;;;;0.38;0.35;;;29.80;94.50;;;;;;5052039;28;20040;-77
2023/09/19 10:20:50;;;;;;;0.13;0.13;;;29.80;94.00;;;;;;5063620;28;20021;-75
2023/09/19 10:23:30;;;;;;;0.03;0.03;;;29.70;94.50;;;;;;5045109;28;20092;-75
2023/09/19 10:25:57;;;;;;;0.00;0.00;;;27.30;93.40;;;;;;5062724;28;20029;-80
2023/09/19 10:28:27;;;;;;;0.00;0.00;;;30.00;94.40;;;;;;5043855;28;20064;-76
2023/09/19 10:30:54;;;;;;;1.10;1.00;;;30.20;94.50;;;;;;5062225;28;20106;-77
2023/09/19 10:33:22;;;;;;;0.10;0.10;;;33.50;95.60;;;;;;5062894;28;20028;-76
2023/09/19 10:35:51;;;;;;;0.00;0.00;;;30.80;94.00;;;;;;5063209;28;20100;-80
2023/09/19 10:38:24;;;;;;;0.20;0.20;;;30.80;92.60;;;;;;5061923;28;20032;-76
2023/09/19 10:40:52;;;;;;;0.80;0.80;;;30.80;92.00;;;;;;5042935;28;20024;-76
2023/09/19 10:43:20;;;;;;;0.10;0.10;;;30.80;91.30;;;;;;5026835;28;20040;-80
2023/09/19 10:45:52;;;;;;;0.00;0.00;;;30.60;91.00;;;;;;5050067;28;20027;-77
2023/09/19 10:48:25;;;;;;;0.05;0.05;;;29.80;90.00;;;;;;5051987;28;20478;-76
2023/09/19 10:51:12;;;;;;;1.30;1.20;;;30.40;90.20;;;;;;5088065;28;20131;-77
2023/09/19 10:54:06;;;;;;;1.10;1.02;;;30.30;90.40;;;;;;5075056;28;20020;-84
2023/09/19 10:56:41;;;;;;;0.47;0.38;;;33.20;91.00;;;;;;4993968;28;20037;-76
2023/09/19 10:59:10;;;;;;;0.15;0.15;;;30.70;89.80;;;;;;4982805;28;20039;-76
2023/09/19 11:01:47;;;;;;;5.40;5.05;;;31.00;89.90;;;;;;4978187;28;20448;-76
2023/09/19 11:04:30;;;;;;;0.47;0.43;;;31.10;89.40;;;;;;4979373;28;20512;-76
2023/09/19 11:07:14;;;;;;;0.00;0.00;;;31.20;89.60;;;;;;4961261;28;20030;-76
2023/09/19 11:09:54;;;;;;;0.55;0.30;;;29.40;87.10;;;;;;4978192;28;20247;-76
2023/09/19 11:12:28;;;;;;;0.08;0.08;;;31.40;86.70;;;;;;4961289;28;20166;-75
2023/09/19 11:14:55;;;;;;;0.45;0.38;;;31.60;86.50;;;;;;4978926;28;20550;-75
2023/09/19 11:17:21;;;;;;;2.17;0.63;;;29.40;83.50;;;;;;4979554;28;20018;-76
2023/09/19 11:23:09;;;;;;;0.17;0.17;;;31.60;85.30;;;;;;4979157;28;20503;-76
2023/09/19 11:25:39;;;;;;;0.22;0.17;;;31.80;85.30;;;;;;4940300;29;20039;-76
2023/09/19 11:28:22;;;;;;;0.03;0.03;;;32.00;82.50;;;;;;4942645;28;20112;-78
2023/09/19 11:30:56;;;;;;;0.13;0.13;;;32.10;84.00;;;;;;4947061;28;20454;-76
2023/09/19 11:33:28;;;;;;;0.20;0.17;;;32.40;82.80;;;;;;4953337;28;20274;-76
2023/09/19 11:36:24;;;;;;;0.00;0.00;;;32.30;79.70;;;;;;5002629;28;20543;-79
2023/09/19 11:38:50;;;;;;;0.85;0.30;;;31.90;77.20;;;;;;5001601;28;20097;-77
2023/09/19 11:44:03;;;;;;;0.35;0.22;;;32.20;76.20;;;;;;4999871;28;20508;-76
2023/09/19 11:46:31;;;;;;;1.98;1.15;;;32.20;76.50;;;;;;4998567;28;20129;-76
2023/09/19 11:49:20;;;;;;;0.15;0.15;;;32.20;75.20;;;;;;4997926;28;20248;-76
2023/09/19 11:51:47;;;;;;;0.00;0.00;;;32.20;75.80;;;;;;4998696;28;20046;-78
2023/09/19 11:54:24;;;;;;;0.03;0.03;;;32.20;75.40;;;;;;5009466;28;20092;-84
2023/09/19 11:56:53;;;;;;;0.00;0.00;;;32.30;75.60;;;;;;4984289;28;20061;-76
2023/09/19 11:59:22;;;;;;;0.65;0.22;;;32.20;74.90;;;;;;4997529;28;20037;-85
2023/09/19 12:01:59;;;;;;;3.47;3.15;;;32.40;74.00;;;;;;5011183;28;20682;-86
2023/09/19 12:04:37;;;;;;;4.30;0.68;;;32.30;71.50;;;;;;5061854;28;20071;-78
2023/09/19 12:07:11;;;;;;;0.00;0.00;;;32.50;70.40;;;;;;5059439;28;20275;-77
2023/09/19 12:09:43;;;;;;;0.00;0.00;;;32.70;70.60;;;;;;5047028;28;20050;-76
2023/09/19 12:12:12;;;;;;;0.17;0.13;;;33.00;70.50;;;;;;5043494;28;20017;-76
2023/09/19 12:14:41;;;;;;;0.90;0.55;;;32.90;70.60;;;;;;5060306;28;20130;-77
2023/09/19 12:17:07;;;;;;;0.00;0.00;;;32.80;70.10;;;;;;5063996;28;20016;-76
2023/09/19 12:19:33;;;;;;;0.98;0.98;;;32.80;70.20;;;;;;5076047;28;20035;-76
2023/09/19 12:22:04;;;;;;;0.00;0.00;;;32.10;69.40;;;;;;5059720;28;20028;-76
2023/09/19 12:24:34;;;;;;;1.63;1.52;;;32.90;69.10;;;;;;5060966;28;20229;-77
2023/09/19 12:27:05;;;;;;;2.83;2.05;;;32.80;69.80;;;;;;5060947;28;20119;-77
2023/09/19 12:29:42;;;;;;;0.88;0.85;;;32.60;68.20;;;;;;5039609;28;20039;-77
2023/09/19 12:32:09;;;;;;;0.20;0.20;;;32.80;68.30;;;;;;5060659;28;20023;-76
2023/09/19 12:34:35;;;;;;;0.10;0.10;;;32.60;68.30;;;;;;5066385;28;20021;-76
2023/09/19 12:37:22;;;;;;;0.08;0.08;;;29.80;66.90;;;;;;5044037;28;20126;-75
2023/09/19 12:39:54;;;;;;;1.00;1.00;;;31.00;67.00;;;;;;5061208;28;20021;-76
2023/09/19 12:42:35;;;;;;;1.05;0.30;;;32.70;67.80;;;;;;5050275;28;20029;-82
2023/09/19 12:45:01;;;;;;;0.00;0.00;;;32.60;67.30;;;;;;5064452;28;20090;-76
2023/09/19 12:47:29;;;;;;;1.10;0.60;;;32.80;66.80;;;;;;5042641;28;20325;-76
2023/09/19 12:50:19;;;;;;;0.00;0.00;;;32.80;67.50;;;;;;5066018;28;20497;-80
2023/09/19 12:52:56;;;;;;;0.98;0.47;;;32.90;67.40;;;;;;5064100;28;20028;-76
2023/09/19 12:55:32;;;;;;;1.00;0.65;;;32.80;67.90;;;;;;5060731;28;20013;-76
2023/09/19 12:58:12;;;;;;;2.08;0.57;;;32.70;67.70;;;;;;5062703;28;20021;-78
2023/09/19 13:00:42;;;;;;;0.22;0.22;;;32.90;67.80;;;;;;5065289;28;20272;-76
2023/09/19 13:03:34;;;;;;;0.10;0.10;;;33.30;67.70;;;;;;5061901;28;20037;-76
2023/09/19 13:06:04;;;;;;;0.33;0.33;;;32.40;67.30;;;;;;5057411;28;20021;-75
2023/09/19 13:08:37;;;;;;;0.35;0.32;;;33.10;71.30;;;;;;5059661;28;20517;-77
2023/09/19 13:11:21;;;;;;;16.35;1.95;;;32.10;71.00;;;;;;5042218;28;20035;-78
2023/09/19 13:14:11;;;;;;;0.00;0.00;;;33.30;72.40;;;;;;5060083;28;20048;-76
2023/09/19 13:17:04;;;;;;;1.80;1.70;;;33.20;71.50;;;;;;5058079;28;20028;-77
2023/09/19 13:19:49;;;;;;;0.05;0.05;;;32.90;72.30;;;;;;5059202;28;20713;-76
2023/09/19 13:22:48;;;;;;;0.10;0.05;;;32.30;74.00;;;;;;5061420;28;20509;-82